Time;durP1;ratioP1;P1;durP2;ratioP2;P2;SDS_P1;SDS_P2;PMS_P1;PMS_P2;Temp;Humidity;BMP_temperature;BMP_pressure;BME280_temperature;BME280_humidity;BME280_pressure;Samples;Min_cycle;Max_cycle;Signal;HPM_P1;HPM_P2
2023/06/08 00:01:52;;;;;;;;;;;;;;;15.65;73.35;101863.06;5017306;28;20244;-45
2023/06/08 00:04:18;;;;;;;;;;;;;;;15.59;75.81;101860.28;5020861;28;20000;-45
2023/06/08 00:06:44;;;;;;;;;;;;;;;15.54;75.88;101862.78;5015570;28;20017;-44
2023/06/08 00:09:10;;;;;;;;;;;;;;;15.48;76.99;101857.47;5020894;28;19921;-45
2023/06/08 00:11:35;;;;;;;;;;;;;;;15.42;75.49;101865.09;5021178;28;19925;-46
2023/06/08 00:14:00;;;;;;;;;;;;;;;15.34;75.80;101862.28;5020513;28;20347;-45
2023/06/08 00:16:27;;;;;;;;;;;;;;;15.29;78.08;101858.75;5017922;28;19922;-44
2023/06/08 00:18:56;;;;;;;;;;;;;;;15.23;75.84;101856.88;5019498;28;19971;-43
2023/06/08 00:21:22;;;;;;;;;;;;;;;15.19;77.82;101852.44;5018275;28;20296;-44
2023/06/08 00:23:48;;;;;;;;;;;;;;;15.16;77.78;101854.06;5020285;28;19926;-45
2023/06/08 00:26:13;;;;;;;;;;;;;;;15.12;79.15;101854.84;5025076;28;19975;-43
2023/06/08 00:28:38;;;;;;;;;;;;;;;15.08;79.11;101860.78;5022933;28;20004;-45
2023/06/08 00:31:04;;;;;;;;;;;;;;;15.06;76.72;101857.28;5021782;28;19922;-44
2023/06/08 00:33:29;;;;;;;;;;;;;;;15.05;78.40;101856.41;5023750;28;19929;-45
2023/06/08 00:35:54;;;;;;;;;;;;;;;15.03;78.13;101856.34;5022876;28;19917;-46
2023/06/08 00:38:20;;;;;;;;;;;;;;;15.03;79.16;101856.34;5021599;28;19921;-46
2023/06/08 00:40:45;;;;;;;;;;;;;;;15.01;77.90;101860.63;5022987;28;19917;-45
2023/06/08 00:43:11;;;;;;;;;;;;;;;15.02;78.80;101848.53;5020103;28;19918;-57
2023/06/08 00:45:36;;;;;;;;;;;;;;;15.03;78.77;101853.75;5022987;28;19917;-57
2023/06/08 00:48:02;;;;;;;;;;;;;;;15.03;77.35;101847.69;5019908;28;20338;-58
2023/06/08 00:50:30;;;;;;;;;;;;;;;14.98;79.20;101838.94;5025268;28;19964;-57
2023/06/08 00:52:56;;;;;;;;;;;;;;;14.94;79.43;101840.59;5019320;28;19914;-55
2023/06/08 00:55:21;;;;;;;;;;;;;;;14.97;77.83;101827.69;5024695;28;20004;-58
2023/06/08 00:57:47;;;;;;;;;;;;;;;14.92;77.83;101837.06;5016859;28;19924;-58
2023/06/08 01:00:13;;;;;;;;;;;;;;;14.89;77.31;101834.41;5021262;28;19968;-58
2023/06/08 01:02:39;;;;;;;;;;;;;;;14.87;78.64;101837.81;5018844;28;19924;-58
2023/06/08 01:05:05;;;;;;;;;;;;;;;14.86;77.00;101833.44;5020437;28;20437;-57
2023/06/08 01:07:53;;;;;;;;;;;;;;;14.77;79.30;101830.63;5017245;28;20288;-58
2023/06/08 01:10:25;;;;;;;;;;;;;;;14.73;78.61;101840.88;5019505;28;19992;-58
2023/06/08 01:12:59;;;;;;;;;;;;;;;14.68;78.88;101828.66;5015502;28;20395;-56
2023/06/08 01:15:30;;;;;;;;;;;;;;;14.63;78.67;101825.97;5018861;28;20292;-57
2023/06/08 01:18:04;;;;;;;;;;;;;;;14.62;77.51;101831.97;5020082;28;20007;-58
2023/06/08 01:20:37;;;;;;;;;;;;;;;14.52;78.06;101827.38;5022241;28;20004;-58
2023/06/08 01:23:20;;;;;;;;;;;;;;;14.48;80.74;101830.72;5015427;28;19936;-57
2023/06/08 01:25:46;;;;;;;;;;;;;;;14.44;81.53;101826.28;5023066;28;20512;-57
2023/06/08 01:28:15;;;;;;;;;;;;;;;14.42;81.43;101831.38;5024409;28;19960;-57
2023/06/08 01:30:45;;;;;;;;;;;;;;;14.39;80.69;101827.84;5018659;28;19928;-57
2023/06/08 01:33:21;;;;;;;;;;;;;;;14.36;80.21;101831.22;5021206;28;19995;-57
2023/06/08 01:35:52;;;;;;;;;;;;;;;14.34;80.90;101843.25;5016357;28;19913;-58
2023/06/08 01:38:22;;;;;;;;;;;;;;;14.32;81.10;101833.66;5019618;28;19917;-58
2023/06/08 01:40:50;;;;;;;;;;;;;;;14.27;80.94;101830.97;5018367;28;19951;-57
2023/06/08 01:43:16;;;;;;;;;;;;;;;14.23;79.02;101829.13;5020779;28;19913;-57
2023/06/08 01:45:45;;;;;;;;;;;;;;;14.20;80.54;101826.47;5016573;28;20376;-58
2023/06/08 01:48:12;;;;;;;;;;;;;;;14.15;82.00;101826.31;5021485;28;19924;-56
2023/06/08 01:50:37;;;;;;;;;;;;;;;14.09;80.45;101830.44;5023904;28;19963;-44
2023/06/08 01:53:03;;;;;;;;;;;;;;;14.05;81.09;101820.84;5022866;28;19921;-45
2023/06/08 01:55:28;;;;;;;;;;;;;;;13.97;80.99;101824.91;5021848;28;19917;-45
2023/06/08 01:57:53;;;;;;;;;;;;;;;13.91;83.36;101817.84;5015544;28;19952;-44
2023/06/08 02:00:20;;;;;;;;;;;;;;;13.86;82.40;101804.78;5019679;28;19921;-45
2023/06/08 02:02:45;;;;;;;;;;;;;;;13.80;83.98;101812.34;5013669;28;20297;-44
2023/06/08 02:05:11;;;;;;;;;;;;;;;13.79;84.23;101814.91;5013232;28;19925;-44
2023/06/08 02:07:40;;;;;;;;;;;;;;;13.71;82.96;101809.50;5014255;28;20007;-46
2023/06/08 02:10:06;;;;;;;;;;;;;;;13.66;83.23;101808.50;5013847;28;19921;-44
2023/06/08 02:12:32;;;;;;;;;;;;;;;13.62;84.35;101812.66;5013616;28;19921;-44
2023/06/08 02:14:57;;;;;;;;;;;;;;;13.59;82.46;101811.69;5016969;28;19914;-47
2023/06/08 02:17:33;;;;;;;;;;;;;;;13.50;84.13;101819.16;5018530;28;20265;-44
2023/06/08 02:20:00;;;;;;;;;;;;;;;13.41;83.78;101818.06;5013387;28;20343;-45
2023/06/08 02:22:27;;;;;;;;;;;;;;;13.37;84.80;101803.28;5026300;28;19912;-44
2023/06/08 02:24:52;;;;;;;;;;;;;;;13.32;85.54;101806.56;5025647;28;19932;-43
2023/06/08 02:27:18;;;;;;;;;;;;;;;13.29;85.11;101806.47;5028227;28;19991;-44
2023/06/08 02:29:43;;;;;;;;;;;;;;;13.26;85.67;101812.41;5014524;28;19917;-44
2023/06/08 02:32:09;;;;;;;;;;;;;;;13.23;84.08;101812.31;5015473;28;19922;-44
2023/06/08 02:34:36;;;;;;;;;;;;;;;13.20;87.01;101811.28;5015020;28;20011;-45
2023/06/08 02:37:01;;;;;;;;;;;;;;;13.21;83.63;101808.78;5013057;28;20447;-45
2023/06/08 02:39:26;;;;;;;;;;;;;;;13.14;85.33;101822.28;5014128;28;20380;-45
2023/06/08 02:41:52;;;;;;;;;;;;;;;13.13;86.21;101820.53;5017721;28;19917;-46
2023/06/08 02:44:17;;;;;;;;;;;;;;;13.08;86.72;101817.81;5019953;28;19979;-45
2023/06/08 02:46:42;;;;;;;;;;;;;;;13.04;85.99;101815.06;5020357;28;20387;-45
2023/06/08 02:49:07;;;;;;;;;;;;;;;12.99;87.28;101817.50;5018713;28;19917;-44
2023/06/08 02:51:33;;;;;;;;;;;;;;;12.95;87.44;101823.38;5015059;28;19930;-44
2023/06/08 02:53:58;;;;;;;;;;;;;;;12.94;86.01;101821.63;5020979;28;19959;-47
2023/06/08 02:56:26;;;;;;;;;;;;;;;12.92;87.50;101814.66;5018240;28;20016;-45
2023/06/08 02:58:52;;;;;;;;;;;;;;;12.89;88.42;101813.72;5020737;28;19921;-44
2023/06/08 03:01:17;;;;;;;;;;;;;;;12.86;87.03;101816.22;5018679;28;20341;-45
2023/06/08 03:03:43;;;;;;;;;;;;;;;12.83;87.28;101813.53;5018928;28;19917;-45
2023/06/08 03:06:09;;;;;;;;;;;;;;;12.82;87.55;101813.47;5016631;28;19924;-45
2023/06/08 03:08:36;;;;;;;;;;;;;;;12.81;90.73;101812.59;5017733;28;19925;-47
2023/06/08 03:11:01;;;;;;;;;;;;;;;12.76;89.01;101806.41;5016369;28;20466;-45
2023/06/08 03:13:27;;;;;;;;;;;;;;;12.72;89.86;101801.09;5012094;28;19965;-47
2023/06/08 03:15:52;;;;;;;;;;;;;;;12.68;89.75;101802.69;5016293;28;20008;-45
2023/06/08 03:18:17;;;;;;;;;;;;;;;12.67;89.20;101807.78;5016386;28;20008;-45
2023/06/08 03:20:43;;;;;;;;;;;;;;;12.62;92.05;101802.50;5014281;28;19918;-46
2023/06/08 03:23:09;;;;;;;;;;;;;;;12.58;89.76;101798.03;5017693;28;20423;-45
2023/06/08 03:25:36;;;;;;;;;;;;;;;12.56;90.51;101794.53;5024039;28;19925;-46
2023/06/08 03:28:02;;;;;;;;;;;;;;;12.57;89.92;101801.44;5013529;28;19924;-45
2023/06/08 03:30:27;;;;;;;;;;;;;;;12.54;89.38;101793.59;5019194;28;19917;-48
2023/06/08 03:32:52;;;;;;;;;;;;;;;12.54;91.91;101809.06;5016444;28;19917;-45
2023/06/08 03:35:18;;;;;;;;;;;;;;;12.52;90.20;101808.13;5017964;28;19931;-45
2023/06/08 03:37:43;;;;;;;;;;;;;;;12.48;91.00;101812.31;5014210;28;19924;-46
2023/06/08 03:40:09;;;;;;;;;;;;;;;12.47;91.02;101810.56;5018253;28;19960;-45
2023/06/08 03:42:34;;;;;;;;;;;;;;;12.48;88.48;101811.44;5013430;28;19925;-43
2023/06/08 03:44:59;;;;;;;;;;;;;;;12.46;92.30;101810.50;5016466;28;20015;-44
2023/06/08 03:47:25;;;;;;;;;;;;;;;12.43;92.16;101812.97;5011027;28;19971;-44
2023/06/08 03:49:51;;;;;;;;;;;;;;;12.41;90.76;101812.03;5018626;28;19971;-43
2023/06/08 03:52:16;;;;;;;;;;;;;;;12.40;91.33;101807.72;5012498;28;19921;-44
2023/06/08 03:54:41;;;;;;;;;;;;;;;12.41;90.34;101815.50;5015021;28;20360;-45
2023/06/08 03:57:07;;;;;;;;;;;;;;;12.39;91.07;101805.97;5021587;28;19923;-45
2023/06/08 03:59:32;;;;;;;;;;;;;;;12.39;92.09;101805.97;5011358;28;19917;-44
2023/06/08 04:01:57;;;;;;;;;;;;;;;12.35;90.57;101805.84;5012867;28;19925;-46
2023/06/08 04:04:23;;;;;;;;;;;;;;;12.35;90.57;101800.69;5016437;28;19921;-45
2023/06/08 04:06:49;;;;;;;;;;;;;;;12.36;90.75;101809.28;5016295;28;20016;-45
2023/06/08 04:09:14;;;;;;;;;;;;;;;12.35;92.51;101805.84;5015495;28;20402;-43
2023/06/08 04:11:40;;;;;;;;;;;;;;;12.37;90.57;101807.59;5015652;28;19917;-45
2023/06/08 04:14:06;;;;;;;;;;;;;;;12.38;92.64;101809.34;5013404;28;19940;-46
2023/06/08 04:16:31;;;;;;;;;;;;;;;12.39;91.37;101809.41;5021620;28;20371;-44
2023/06/08 04:18:56;;;;;;;;;;;;;;;12.41;91.50;101809.47;5013391;28;20301;-45
2023/06/08 04:21:25;;;;;;;;;;;;;;;12.41;90.58;101810.34;5013830;28;19960;-44
2023/06/08 04:23:50;;;;;;;;;;;;;;;12.48;91.97;101807.13;5011528;28;20763;-44
2023/06/08 04:26:16;;;;;;;;;;;;;;;12.56;92.27;101799.69;5020085;28;20439;-43
2023/06/08 04:28:41;;;;;;;;;;;;;;;12.63;91.32;101796.50;5010321;28;19917;-44
2023/06/08 04:31:08;;;;;;;;;;;;;;;12.72;88.94;101808.81;5013264;28;20296;-45
2023/06/08 04:33:33;;;;;;;;;;;;;;;12.79;89.25;101806.50;5021415;28;20364;-46
2023/06/08 04:35:58;;;;;;;;;;;;;;;12.96;90.29;101798.44;5016886;28;19929;-46
2023/06/08 04:38:25;;;;;;;;;;;;;;;13.15;89.66;101803.38;5019317;28;19918;-46
2023/06/08 04:40:53;;;;;;;;;;;;;;;13.26;88.81;101798.59;5014251;28;20382;-47
2023/06/08 04:43:20;;;;;;;;;;;;;;;13.29;88.03;101797.00;5015010;28;19924;-59
2023/06/08 04:45:47;;;;;;;;;;;;;;;13.19;87.23;101802.66;5013739;28;19924;-58
2023/06/08 04:48:13;;;;;;;;;;;;;;;13.09;88.57;101803.19;5017081;28;19913;-59
2023/06/08 04:50:41;;;;;;;;;;;;;;;13.05;88.03;101799.66;5014049;28;19913;-57
2023/06/08 04:53:10;;;;;;;;;;;;;;;12.99;88.31;101796.00;5018151;28;19917;-59
2023/06/08 04:55:37;;;;;;;;;;;;;;;12.91;89.10;101803.44;5017567;28;19944;-59
2023/06/08 04:58:02;;;;;;;;;;;;;;;12.87;87.77;101799.91;5024428;28;19917;-57
2023/06/08 05:00:27;;;;;;;;;;;;;;;12.83;89.43;101790.28;5025544;28;19913;-58
2023/06/08 05:02:52;;;;;;;;;;;;;;;12.89;89.97;101797.38;5025242;28;20455;-58
2023/06/08 05:05:18;;;;;;;;;;;;;;;13.12;88.82;101805.88;5026506;28;19926;-58
2023/06/08 05:07:43;;;;;;;;;;;;;;;13.45;87.84;101793.19;5024534;28;19922;-58
2023/06/08 05:10:08;;;;;;;;;;;;;;;13.72;85.95;101803.50;5022918;28;20008;-57
2023/06/08 05:12:33;;;;;;;;;;;;;;;13.84;85.67;101796.13;5021592;28;19933;-58
2023/06/08 05:14:59;;;;;;;;;;;;;;;13.91;85.44;101805.78;5019970;28;19987;-58
2023/06/08 05:17:24;;;;;;;;;;;;;;;13.79;85.31;101802.84;5023113;28;19917;-58
2023/06/08 05:19:50;;;;;;;;;;;;;;;13.73;85.61;101799.22;5023232;28;19929;-58
2023/06/08 05:22:15;;;;;;;;;;;;;;;13.70;85.43;101799.97;5016935;28;19918;-57
2023/06/08 05:24:40;;;;;;;;;;;;;;;13.63;85.39;101798.03;5024097;28;20023;-58
2023/06/08 05:27:06;;;;;;;;;;;;;;;13.53;85.61;101794.31;5020747;28;19925;-57
2023/06/08 05:29:31;;;;;;;;;;;;;;;13.47;86.71;101791.53;5023185;28;19917;-58
2023/06/08 05:31:56;;;;;;;;;;;;;;;13.45;86.41;101795.75;5020432;28;20008;-57
2023/06/08 05:34:22;;;;;;;;;;;;;;;13.48;85.84;101787.25;5022266;28;19917;-57
2023/06/08 05:36:47;;;;;;;;;;;;;;;13.49;85.77;101792.47;5023473;28;20583;-58
2023/06/08 05:39:12;;;;;;;;;;;;;;;13.54;85.60;101790.91;5015200;28;19924;-59
2023/06/08 05:41:37;;;;;;;;;;;;;;;13.75;85.53;101795.81;5020234;28;19975;-59
2023/06/08 05:44:03;;;;;;;;;;;;;;;14.10;84.53;101783.06;5019217;28;19943;-57
2023/06/08 05:46:28;;;;;;;;;;;;;;;14.29;83.73;101785.31;5019029;28;19957;-57
2023/06/08 05:48:53;;;;;;;;;;;;;;;14.55;83.19;101775.69;5018030;28;19917;-58
2023/06/08 05:51:18;;;;;;;;;;;;;;;15.01;82.34;101779.44;5017585;28;20399;-58
2023/06/08 05:53:44;;;;;;;;;;;;;;;15.54;80.54;101777.25;5021588;28;20364;-58
2023/06/08 05:56:09;;;;;;;;;;;;;;;15.87;78.21;101781.44;5024215;28;19918;-59
2023/06/08 05:58:35;;;;;;;;;;;;;;;16.06;78.38;101780.97;5016557;28;19929;-58
2023/06/08 06:01:03;;;;;;;;;;;;;;;16.26;76.98;101781.34;5021268;28;20398;-57
2023/06/08 06:03:29;;;;;;;;;;;;;;;16.52;77.15;101781.84;5020486;28;19917;-58
2023/06/08 06:05:54;;;;;;;;;;;;;;;16.62;75.92;101776.88;5025620;28;20597;-57
2023/06/08 06:08:19;;;;;;;;;;;;;;;16.66;75.20;101775.19;5017232;28;20256;-57
2023/06/08 06:10:45;;;;;;;;;;;;;;;16.84;74.32;101766.88;5017862;28;20372;-58
2023/06/08 06:13:10;;;;;;;;;;;;;;;16.88;73.74;101779.94;5016611;28;19921;-58
2023/06/08 06:15:35;;;;;;;;;;;;;;;17.04;72.41;101778.44;5025247;28;19979;-57
2023/06/08 06:18:01;;;;;;;;;;;;;;;17.29;73.85;101776.22;5020930;28;19964;-57
2023/06/08 06:20:29;;;;;;;;;;;;;;;17.47;72.51;101786.88;5015700;28;19949;-57
2023/06/08 06:22:55;;;;;;;;;;;;;;;17.49;70.80;101785.22;5018162;28;19917;-58
2023/06/08 06:25:21;;;;;;;;;;;;;;;17.61;70.81;101787.97;5015612;28;19975;-61
2023/06/08 06:27:46;;;;;;;;;;;;;;;17.65;70.73;101789.78;5016042;28;19972;-59
2023/06/08 06:30:12;;;;;;;;;;;;;;;17.75;70.15;101783.00;5011846;28;19953;-58
2023/06/08 06:32:37;;;;;;;;;;;;;;;17.91;71.92;101786.69;5013244;28;20395;-57
2023/06/08 06:35:02;;;;;;;;;;;;;;;17.89;67.36;101790.97;5012190;28;19944;-58
2023/06/08 06:37:34;;;;;;;;;;;;;;;17.81;68.19;101795.22;5017434;28;19918;-57
2023/06/08 06:40:00;;;;;;;;;;;;;;;17.59;68.77;101794.88;5020748;28;19999;-58
2023/06/08 06:42:25;;;;;;;;;;;;;;;17.56;70.42;101787.03;5018569;28;20368;-56
2023/06/08 06:44:50;;;;;;;;;;;;;;;17.67;70.01;101790.66;5018629;28;19957;-59
2023/06/08 06:47:15;;;;;;;;;;;;;;;17.88;69.16;101786.63;5018978;28;19972;-57
2023/06/08 06:49:41;;;;;;;;;;;;;;;17.95;69.10;101778.91;5016932;28;19967;-58
2023/06/08 06:52:06;;;;;;;;;;;;;;;18.07;67.77;101782.50;5017848;28;19925;-58
2023/06/08 06:54:32;;;;;;;;;;;;;;;18.26;65.86;101781.00;5016716;28;19936;-58
2023/06/08 06:56:57;;;;;;;;;;;;;;;18.37;66.95;101789.78;5018946;28;19964;-57
2023/06/08 06:59:23;;;;;;;;;;;;;;;18.52;67.55;101789.97;5018979;28;19949;-58
2023/06/08 07:01:48;;;;;;;;;;;;;;;18.72;66.72;101791.06;5018149;28;19971;-58
2023/06/08 07:04:15;;;;;;;;;;;;;;;18.67;66.22;101795.34;5021840;28;20398;-57
2023/06/08 07:06:42;;;;;;;;;;;;;;;18.93;65.78;101797.34;5017570;28;20294;-57
2023/06/08 07:09:08;;;;;;;;;;;;;;;19.22;65.30;101790.59;5024275;28;19921;-57
2023/06/08 07:11:33;;;;;;;;;;;;;;;19.36;63.52;101795.06;5014069;28;19976;-57
2023/06/08 07:13:58;;;;;;;;;;;;;;;19.42;63.56;101789.88;5017198;28;19940;-58
2023/06/08 07:16:24;;;;;;;;;;;;;;;19.63;63.72;101791.75;5022686;28;19917;-58
2023/06/08 07:18:50;;;;;;;;;;;;;;;19.68;62.99;101798.75;5013691;28;20352;-58
2023/06/08 07:21:19;;;;;;;;;;;;;;;19.76;63.10;101794.44;5021627;28;19967;-57
2023/06/08 07:23:44;;;;;;;;;;;;;;;19.73;63.36;101794.44;5016603;28;19925;-58
2023/06/08 07:26:11;;;;;;;;;;;;;;;19.67;61.34;101794.41;5021443;28;19924;-58
2023/06/08 07:28:36;;;;;;;;;;;;;;;19.70;63.51;101802.22;5020488;28;19917;-57
2023/06/08 07:31:02;;;;;;;;;;;;;;;19.90;62.31;101798.84;5015271;28;20281;-58
2023/06/08 07:33:27;;;;;;;;;;;;;;;20.09;62.56;101795.47;5024982;28;20008;-57
2023/06/08 07:35:52;;;;;;;;;;;;;;;20.05;62.11;101793.69;5010595;28;19928;-58
2023/06/08 07:38:17;;;;;;;;;;;;;;;20.04;62.61;101786.75;5011036;28;20059;-57
2023/06/08 07:40:43;;;;;;;;;;;;;;;20.06;61.34;101793.69;5013462;28;19922;-58
2023/06/08 07:43:08;;;;;;;;;;;;;;;20.16;61.58;101786.78;5016380;28;19945;-58
2023/06/08 07:45:33;;;;;;;;;;;;;;;20.16;60.06;101778.94;5015191;28;20008;-58
2023/06/08 07:47:59;;;;;;;;;;;;;;;20.18;60.71;101790.25;5012969;28;19972;-58
2023/06/08 07:50:24;;;;;;;;;;;;;;;20.36;61.18;101779.88;5013321;28;19918;-57
2023/06/08 07:52:49;;;;;;;;;;;;;;;20.52;60.06;101779.94;5010047;28;19932;-58
2023/06/08 07:55:15;;;;;;;;;;;;;;;20.58;60.68;101777.34;5013057;28;19917;-59
2023/06/08 07:57:40;;;;;;;;;;;;;;;20.70;59.35;101776.47;5010078;28;19921;-58
2023/06/08 08:00:06;;;;;;;;;;;;;;;20.81;59.43;101772.09;5015156;28;20392;-57
2023/06/08 08:02:31;;;;;;;;;;;;;;;20.94;58.97;101770.38;5011333;28;19918;-58
2023/06/08 08:04:57;;;;;;;;;;;;;;;21.02;58.70;101773.88;5010811;28;19922;-58
2023/06/08 08:07:22;;;;;;;;;;;;;;;20.92;59.21;101765.13;5021894;28;19917;-57
2023/06/08 08:09:47;;;;;;;;;;;;;;;20.87;58.22;101778.22;5016447;28;19985;-57
2023/06/08 08:12:12;;;;;;;;;;;;;;;20.78;58.75;101779.97;5018057;28;19921;-57
2023/06/08 08:14:39;;;;;;;;;;;;;;;20.95;59.27;101774.75;5018052;28;19990;-57
2023/06/08 08:17:04;;;;;;;;;;;;;;;21.20;58.65;101776.47;5018183;28;19921;-57
2023/06/08 08:19:30;;;;;;;;;;;;;;;21.48;57.50;101781.66;5018674;28;19948;-58
2023/06/08 08:21:55;;;;;;;;;;;;;;;21.69;56.30;101772.00;5011158;28;19913;-58
2023/06/08 08:24:20;;;;;;;;;;;;;;;21.68;55.96;101779.88;5017691;28;19929;-57
2023/06/08 08:26:46;;;;;;;;;;;;;;;21.66;57.04;101784.25;5012413;28;19921;-58
2023/06/08 08:29:11;;;;;;;;;;;;;;;21.62;57.23;101775.53;5014108;28;19925;-58
2023/06/08 08:31:36;;;;;;;;;;;;;;;21.73;56.28;101782.47;5015895;28;19957;-58
2023/06/08 08:34:02;;;;;;;;;;;;;;;21.79;56.35;101780.72;5011424;28;19913;-58
2023/06/08 08:36:27;;;;;;;;;;;;;;;21.99;56.58;101775.38;5012508;28;20299;-57
2023/06/08 08:38:52;;;;;;;;;;;;;;;22.05;55.64;101772.72;5012605;28;19987;-58
2023/06/08 08:41:19;;;;;;;;;;;;;;;22.00;55.97;101776.25;5015863;28;19928;-57
2023/06/08 08:43:49;;;;;;;;;;;;;;;22.00;56.22;101765.78;5014459;28;19925;-58
2023/06/08 08:46:16;;;;;;;;;;;;;;;22.02;55.48;101772.72;5014976;28;19928;-58
2023/06/08 08:48:42;;;;;;;;;;;;;;;22.15;56.05;101757.88;5025930;28;19917;-57
2023/06/08 08:51:09;;;;;;;;;;;;;;;22.18;55.31;101765.72;5014642;28;19922;-58
2023/06/08 08:53:35;;;;;;;;;;;;;;;22.26;55.10;101765.66;5022211;28;19917;-58
2023/06/08 08:56:03;;;;;;;;;;;;;;;22.37;54.82;101762.09;5018221;28;19963;-58
2023/06/08 08:58:30;;;;;;;;;;;;;;;22.43;54.62;101755.94;5023344;28;20398;-58
2023/06/08 09:00:55;;;;;;;;;;;;;;;22.38;55.24;101755.97;5021698;28;19917;-58
2023/06/08 09:03:21;;;;;;;;;;;;;;;22.55;54.55;101753.25;5022616;28;19935;-56
2023/06/08 09:05:50;;;;;;;;;;;;;;;22.63;54.53;101753.16;5019315;28;19924;-58
2023/06/08 09:08:15;;;;;;;;;;;;;;;22.62;54.13;101751.44;5019824;28;19921;-57
2023/06/08 09:10:40;;;;;;;;;;;;;;;22.53;54.61;101747.16;5022689;28;19918;-45
2023/06/08 09:13:05;;;;;;;;;;;;;;;22.57;54.62;101754.13;5019981;28;20056;-44
2023/06/08 09:15:33;;;;;;;;;;;;;;;22.56;53.99;101748.88;5018348;28;20020;-43
2023/06/08 09:18:02;;;;;;;;;;;;;;;22.35;54.09;101758.63;5013690;28;19929;-47
2023/06/08 09:20:31;;;;;;;;;;;;;;;22.13;54.23;101752.63;5016019;28;19920;-47
2023/06/08 09:22:57;;;;;;;;;;;;;;;22.04;55.35;101741.31;5016295;28;19917;-44
2023/06/08 09:25:38;;;;;;;;;;;;;;;22.04;55.05;101741.31;5020412;28;19913;-47
2023/06/08 09:28:15;;;;;;;;;;;;;;;22.05;54.86;101740.44;5015582;28;19930;-48
2023/06/08 09:30:41;;;;;;;;;;;;;;;22.00;55.02;101745.69;5022406;28;19920;-44
2023/06/08 09:33:20;;;;;;;;;;;;;;;22.03;54.92;101744.81;5018605;28;19917;-45
2023/06/08 09:35:45;;;;;;;;;;;;;;;22.05;56.06;101740.44;5019873;28;19914;-44
2023/06/08 09:38:20;;;;;;;;;;;;;;;22.33;55.86;101742.06;5016574;28;20406;-44
2023/06/08 09:40:46;;;;;;;;;;;;;;;22.53;54.22;101738.41;5015679;28;19940;-49
2023/06/08 09:43:11;;;;;;;;;;;;;;;22.59;54.85;101739.25;5014688;28;19922;-48
2023/06/08 09:45:44;;;;;;;;;;;;;;;22.67;53.24;101740.03;5015389;28;19922;-45
2023/06/08 09:48:10;;;;;;;;;;;;;;;22.57;53.89;101727.91;5014876;28;20360;-48
2023/06/08 09:50:36;;;;;;;;;;;;;;;22.47;54.37;101736.72;5021815;28;19920;-49
2023/06/08 09:53:02;;;;;;;;;;;;;;;22.51;54.04;101732.28;5016560;28;20438;-47
2023/06/08 09:55:28;;;;;;;;;;;;;;;22.56;54.18;101733.13;5020252;28;19919;-49
2023/06/08 09:57:54;;;;;;;;;;;;;;;22.63;53.14;101729.56;5016128;28;20000;-49
2023/06/08 10:00:22;;;;;;;;;;;;;;;22.70;51.32;101728.66;5021738;28;19921;-47
2023/06/08 10:03:17;;;;;;;;;;;;;;;22.68;53.36;101730.41;5016954;28;20494;-49
2023/06/08 10:05:46;;;;;;;;;;;;;;;22.79;52.42;101728.56;5020079;28;20371;-47
2023/06/08 10:08:12;;;;;;;;;;;;;;;;;;5019659;28;19989;-47
2023/06/08 10:10:37;;;;;;;;;;;;;;;;;;5019824;28;19961;-47
2023/06/08 10:13:03;;;;;;;;;;;;;;;22.79;51.95;101725.97;5027127;28;19913;-47
2023/06/08 10:15:29;;;;;;;;;;;;;;;22.80;52.10;101722.44;5019755;28;20291;-50
2023/06/08 10:17:55;;;;;;;;;;;;;;;22.77;52.11;101721.63;5016621;28;19921;-49
2023/06/08 10:20:20;;;;;;;;;;;;;;;22.78;50.60;101729.47;5013044;28;20024;-46
2023/06/08 10:22:46;;;;;;;;;;;;;;;22.72;50.98;101722.53;5025830;28;20771;-45
2023/06/08 10:25:13;;;;;;;;;;;;;;;22.79;50.15;101718.09;5022072;28;19943;-48
2023/06/08 10:27:45;;;;;;;;;;;;;;;22.78;49.99;101724.22;5022639;28;19917;-48
2023/06/08 10:30:11;;;;;;;;;;;;;;;22.65;49.75;101722.59;5023748;28;19923;-44
2023/06/08 10:32:42;;;;;;;;;;;;;;;22.60;50.02;101719.13;5017717;28;20012;-45
2023/06/08 10:35:09;;;;;;;;;;;;;;;22.45;50.41;101718.38;5020628;28;19962;-45
2023/06/08 10:37:36;;;;;;;;;;;;;;;22.61;51.35;101716.50;5021497;28;19917;-47
2023/06/08 10:40:10;;;;;;;;;;;;;;;22.69;50.83;101712.06;5016051;28;19924;-45
2023/06/08 10:42:36;;;;;;;;;;;;;;;22.63;50.91;101712.13;5011747;28;19914;-46
2023/06/08 10:45:04;;;;;;;;;;;;;;;22.71;51.88;101704.19;5012203;28;19928;-45
2023/06/08 10:47:33;;;;;;;;;;;;;;;22.80;51.73;101701.47;5011505;28;19914;-46
2023/06/08 10:50:02;;;;;;;;;;;;;;;22.88;51.31;101699.69;5013059;28;19917;-49
2023/06/08 10:52:29;;;;;;;;;;;;;;;22.90;51.24;101700.53;5019611;28;20010;-46
2023/06/08 10:55:11;;;;;;;;;;;;;;;22.81;50.40;101705.81;5016674;28;19921;-46
2023/06/08 10:57:39;;;;;;;;;;;;;;;22.77;50.72;101698.88;5017578;28;19913;-46
2023/06/08 11:00:24;;;;;;;;;;;;;;;22.77;50.83;101696.28;5019384;28;19914;-46
2023/06/08 11:02:49;;;;;;;;;;;;;;;22.70;50.89;101694.59;5020051;28;19918;-46
2023/06/08 11:05:15;;;;;;;;;;;;;;;22.59;50.23;101689.44;5015107;28;20020;-47
2023/06/08 11:07:41;;;;;;;;;;;;;;;22.53;50.94;101680.75;5012879;28;20288;-48
2023/06/08 11:10:06;;;;;;;;;;;;;;;22.56;50.72;101680.72;5011599;28;19913;-48
2023/06/08 11:12:31;;;;;;;;;;;;;;;22.62;50.95;101683.28;5013229;28;19987;-47
2023/06/08 11:14:58;;;;;;;;;;;;;;;22.86;49.88;101684.81;5013837;28;19917;-49
2023/06/08 11:17:23;;;;;;;;;;;;;;;23.05;49.68;101677.66;5013287;28;20016;-47
2023/06/08 11:19:49;;;;;;;;;;;;;;;23.13;49.37;101671.47;5014280;28;20024;-45
2023/06/08 11:22:14;;;;;;;;;;;;;;;23.20;49.76;101673.13;5011902;28;19921;-48
2023/06/08 11:24:41;;;;;;;;;;;;;;;23.32;49.25;101669.50;5020698;28;19926;-48
2023/06/08 11:27:07;;;;;;;;;;;;;;;23.52;48.57;101674.47;5016671;28;20384;-47
2023/06/08 11:29:32;;;;;;;;;;;;;;;23.61;47.92;101668.25;5017829;28;19924;-50
2023/06/08 11:32:09;;;;;;;;;;;;;;;23.63;48.08;101661.25;5020055;28;19997;-48
2023/06/08 11:34:34;;;;;;;;;;;;;;;23.69;48.47;101656.78;5012047;28;20016;-50
2023/06/08 11:36:59;;;;;;;;;;;;;;;23.64;48.62;101658.59;5017404;28;20035;-47
2023/06/08 11:39:29;;;;;;;;;;;;;;;23.69;49.06;101654.16;5013276;28;20275;-46
2023/06/08 11:41:54;;;;;;;;;;;;;;;23.71;48.40;101646.25;5014259;28;19968;-48
2023/06/08 11:44:20;;;;;;;;;;;;;;;23.67;49.06;101648.06;5017525;28;20227;-47
2023/06/08 11:46:45;;;;;;;;;;;;;;;23.75;48.69;101637.47;5020696;28;19917;-47
2023/06/08 11:49:10;;;;;;;;;;;;;;;23.89;48.75;101640.75;5015041;28;19925;-49
2023/06/08 11:51:49;;;;;;;;;;;;;;;23.99;48.84;101633.59;5010963;28;19925;-47
2023/06/08 11:54:15;;;;;;;;;;;;;;;24.02;48.51;101633.53;5016603;28;20402;-49
2023/06/08 11:56:42;;;;;;;;;;;;;;;23.95;47.98;101630.13;5015159;28;19917;-47
2023/06/08 11:59:08;;;;;;;;;;;;;;;24.10;48.55;101623.78;5022108;28;20028;-46
2023/06/08 12:01:33;;;;;;;;;;;;;;;24.32;48.18;101632.19;5018471;28;20388;-47
2023/06/08 12:03:58;;;;;;;;;;;;;;;24.39;47.78;101625.09;5017788;28;20296;-49
2023/06/08 12:06:24;;;;;;;;;;;;;;;24.40;47.90;101622.47;5015803;28;20407;-48
2023/06/08 12:08:50;;;;;;;;;;;;;;;24.54;47.84;101614.31;5014751;28;20000;-49
2023/06/08 12:11:15;;;;;;;;;;;;;;;24.58;48.58;101603.72;5011645;28;20016;-48
2023/06/08 12:13:44;;;;;;;;;;;;;;;24.80;47.05;101608.56;5016444;28;19917;-47
2023/06/08 12:16:10;;;;;;;;;;;;;;;25.00;46.99;101600.31;5019907;28;20012;-46
2023/06/08 12:18:39;;;;;;;;;;;;;;;25.17;47.78;101598.22;5016606;28;20013;-47
2023/06/08 12:21:05;;;;;;;;;;;;;;;25.21;45.48;101599.03;5018597;28;19917;-49
2023/06/08 12:23:31;;;;;;;;;;;;;;;25.14;45.87;101596.50;5012103;28;19921;-49
2023/06/08 12:25:56;;;;;;;;;;;;;;;25.18;46.16;101589.44;5020741;28;19921;-46
2023/06/08 12:28:23;;;;;;;;;;;;;;;25.26;44.79;101598.03;5014309;28;19922;-45
2023/06/08 12:30:48;;;;;;;;;;;;;;;25.36;45.54;101589.03;5013674;28;19913;-46
2023/06/08 12:33:22;;;;;;;;;;;;;;;25.53;45.21;101579.88;5024553;28;19990;-48
2023/06/08 12:35:49;;;;;;;;;;;;;;;25.60;43.87;101585.00;5020430;28;20008;-46